sensor_id;sensor_type;location;lat;lon;timestamp;P1;durP1;ratioP1;P2;durP2;ratioP2
23358;SDS011;11851;50.796;4.372;2022-07-06T00:01:41;5.30;;;2.40;;
23358;SDS011;11851;50.796;4.372;2022-07-06T00:04:07;10.35;;;2.90;;
23358;SDS011;11851;50.796;4.372;2022-07-06T00:06:33;11.40;;;3.90;;
23358;SDS011;11851;50.796;4.372;2022-07-06T00:08:58;5.53;;;2.65;;
23358;SDS011;11851;50.796;4.372;2022-07-06T00:11:24;7.47;;;3.00;;
23358;SDS011;11851;50.796;4.372;2022-07-06T00:13:50;7.65;;;2.80;;
23358;SDS011;11851;50.796;4.372;2022-07-06T00:16:16;9.68;;;2.95;;
23358;SDS011;11851;50.796;4.372;2022-07-06T00:18:42;11.90;;;2.55;;
23358;SDS011;11851;50.796;4.372;2022-07-06T00:21:08;8.68;;;2.45;;
23358;SDS011;11851;50.796;4.372;2022-07-06T00:23:34;6.78;;;2.63;;
23358;SDS011;11851;50.796;4.372;2022-07-06T00:26:00;7.53;;;2.58;;
23358;SDS011;11851;50.796;4.372;2022-07-06T00:28:25;9.88;;;2.38;;
23358;SDS011;11851;50.796;4.372;2022-07-06T00:30:51;7.43;;;2.33;;
23358;SDS011;11851;50.796;4.372;2022-07-06T00:33:17;5.60;;;2.20;;
23358;SDS011;11851;50.796;4.372;2022-07-06T00:35:43;5.47;;;2.13;;
23358;SDS011;11851;50.796;4.372;2022-07-06T00:38:09;6.97;;;2.85;;
23358;SDS011;11851;50.796;4.372;2022-07-06T00:40:34;6.57;;;2.00;;
23358;SDS011;11851;50.796;4.372;2022-07-06T00:43:00;5.22;;;2.15;;
23358;SDS011;11851;50.796;4.372;2022-07-06T00:45:25;7.10;;;2.40;;
23358;SDS011;11851;50.796;4.372;2022-07-06T00:47:51;7.28;;;2.28;;
23358;SDS011;11851;50.796;4.372;2022-07-06T00:50:17;5.50;;;2.15;;
23358;SDS011;11851;50.796;4.372;2022-07-06T00:52:46;7.80;;;2.50;;
23358;SDS011;11851;50.796;4.372;2022-07-06T00:55:14;6.88;;;2.15;;
23358;SDS011;11851;50.796;4.372;2022-07-06T00:57:41;6.18;;;2.30;;
23358;SDS011;11851;50.796;4.372;2022-07-06T01:00:08;6.38;;;2.28;;
23358;SDS011;11851;50.796;4.372;2022-07-06T01:02:36;6.07;;;2.30;;
23358;SDS011;11851;50.796;4.372;2022-07-06T01:05:05;9.18;;;2.28;;
23358;SDS011;11851;50.796;4.372;2022-07-06T01:17:54;4.38;;;2.03;;
23358;SDS011;11851;50.796;4.372;2022-07-06T01:20:23;4.38;;;2.08;;
23358;SDS011;11851;50.796;4.372;2022-07-06T01:22:50;5.50;;;2.25;;
23358;SDS011;11851;50.796;4.372;2022-07-06T01:25:17;5.93;;;2.63;;
23358;SDS011;11851;50.796;4.372;2022-07-06T01:27:44;9.45;;;2.55;;
23358;SDS011;11851;50.796;4.372;2022-07-06T01:30:17;7.25;;;2.20;;
23358;SDS011;11851;50.796;4.372;2022-07-06T01:32:44;7.85;;;2.30;;
23358;SDS011;11851;50.796;4.372;2022-07-06T01:35:11;5.70;;;1.88;;
23358;SDS011;11851;50.796;4.372;2022-07-06T01:37:38;5.15;;;2.40;;
23358;SDS011;11851;50.796;4.372;2022-07-06T01:40:05;5.53;;;2.13;;
23358;SDS011;11851;50.796;4.372;2022-07-06T01:42:33;6.60;;;2.15;;
23358;SDS011;11851;50.796;4.372;2022-07-06T01:44:59;6.50;;;2.50;;
23358;SDS011;11851;50.796;4.372;2022-07-06T01:47:25;5.10;;;2.55;;
23358;SDS011;11851;50.796;4.372;2022-07-06T01:49:51;7.05;;;2.63;;
23358;SDS011;11851;50.796;4.372;2022-07-06T01:52:17;4.60;;;2.10;;
23358;SDS011;11851;50.796;4.372;2022-07-06T01:54:42;9.23;;;2.28;;
23358;SDS011;11851;50.796;4.372;2022-07-06T01:57:08;5.50;;;2.28;;
23358;SDS011;11851;50.796;4.372;2022-07-06T01:59:34;6.00;;;2.33;;
23358;SDS011;11851;50.796;4.372;2022-07-06T02:02:00;3.78;;;2.10;;
23358;SDS011;11851;50.796;4.372;2022-07-06T02:04:26;6.40;;;2.50;;
23358;SDS011;11851;50.796;4.372;2022-07-06T02:06:51;3.60;;;2.20;;
23358;SDS011;11851;50.796;4.372;2022-07-06T02:09:17;8.18;;;2.50;;
23358;SDS011;11851;50.796;4.372;2022-07-06T02:11:43;6.18;;;2.35;;
23358;SDS011;11851;50.796;4.372;2022-07-06T02:14:09;7.00;;;2.30;;
23358;SDS011;11851;50.796;4.372;2022-07-06T02:16:35;7.55;;;2.50;;
23358;SDS011;11851;50.796;4.372;2022-07-06T02:19:00;5.90;;;2.22;;
23358;SDS011;11851;50.796;4.372;2022-07-06T02:21:26;6.25;;;2.38;;
23358;SDS011;11851;50.796;4.372;2022-07-06T02:23:52;5.45;;;2.47;;
23358;SDS011;11851;50.796;4.372;2022-07-06T02:26:18;10.43;;;2.50;;
23358;SDS011;11851;50.796;4.372;2022-07-06T02:28:43;5.13;;;2.40;;
23358;SDS011;11851;50.796;4.372;2022-07-06T02:31:11;8.73;;;2.65;;
23358;SDS011;11851;50.796;4.372;2022-07-06T02:33:38;6.80;;;2.70;;
23358;SDS011;11851;50.796;4.372;2022-07-06T02:36:04;8.38;;;2.55;;
23358;SDS011;11851;50.796;4.372;2022-07-06T02:38:30;14.80;;;3.25;;
23358;SDS011;11851;50.796;4.372;2022-07-06T02:40:55;8.90;;;2.50;;
23358;SDS011;11851;50.796;4.372;2022-07-06T02:43:21;7.80;;;2.83;;
23358;SDS011;11851;50.796;4.372;2022-07-06T02:45:46;7.95;;;2.78;;
23358;SDS011;11851;50.796;4.372;2022-07-06T02:48:12;5.47;;;2.78;;
23358;SDS011;11851;50.796;4.372;2022-07-06T02:50:38;13.55;;;2.35;;
23358;SDS011;11851;50.796;4.372;2022-07-06T02:53:04;5.20;;;2.53;;
23358;SDS011;11851;50.796;4.372;2022-07-06T02:55:29;8.77;;;2.83;;
23358;SDS011;11851;50.796;4.372;2022-07-06T02:57:55;7.38;;;2.60;;
23358;SDS011;11851;50.796;4.372;2022-07-06T03:00:21;6.75;;;2.33;;
23358;SDS011;11851;50.796;4.372;2022-07-06T03:02:46;5.55;;;2.60;;
23358;SDS011;11851;50.796;4.372;2022-07-06T03:05:13;8.65;;;2.65;;
23358;SDS011;11851;50.796;4.372;2022-07-06T03:07:39;8.48;;;2.88;;
23358;SDS011;11851;50.796;4.372;2022-07-06T03:10:05;6.35;;;3.30;;
23358;SDS011;11851;50.796;4.372;2022-07-06T03:12:31;7.38;;;2.95;;
23358;SDS011;11851;50.796;4.372;2022-07-06T03:14:56;5.22;;;2.40;;
23358;SDS011;11851;50.796;4.372;2022-07-06T03:17:22;5.32;;;2.72;;
23358;SDS011;11851;50.796;4.372;2022-07-06T03:19:47;4.47;;;2.45;;
23358;SDS011;11851;50.796;4.372;2022-07-06T03:22:13;4.75;;;2.50;;
23358;SDS011;11851;50.796;4.372;2022-07-06T03:24:39;7.13;;;2.65;;
23358;SDS011;11851;50.796;4.372;2022-07-06T03:27:05;6.10;;;2.70;;
23358;SDS011;11851;50.796;4.372;2022-07-06T03:29:30;6.05;;;2.58;;
23358;SDS011;11851;50.796;4.372;2022-07-06T03:31:56;4.85;;;2.58;;
23358;SDS011;11851;50.796;4.372;2022-07-06T03:34:21;6.78;;;2.85;;
23358;SDS011;11851;50.796;4.372;2022-07-06T03:36:47;7.18;;;3.00;;
23358;SDS011;11851;50.796;4.372;2022-07-06T03:39:13;3.90;;;2.47;;
23358;SDS011;11851;50.796;4.372;2022-07-06T03:41:38;6.25;;;2.83;;
23358;SDS011;11851;50.796;4.372;2022-07-06T03:44:04;13.38;;;4.10;;
23358;SDS011;11851;50.796;4.372;2022-07-06T03:46:29;6.70;;;2.80;;
23358;SDS011;11851;50.796;4.372;2022-07-06T03:48:55;8.68;;;3.13;;
23358;SDS011;11851;50.796;4.372;2022-07-06T03:51:21;6.60;;;3.35;;
23358;SDS011;11851;50.796;4.372;2022-07-06T03:53:47;9.07;;;3.13;;
23358;SDS011;11851;50.796;4.372;2022-07-06T03:56:12;11.43;;;3.25;;
23358;SDS011;11851;50.796;4.372;2022-07-06T03:58:56;7.35;;;3.50;;
23358;SDS011;11851;50.796;4.372;2022-07-06T04:01:22;9.50;;;3.30;;
23358;SDS011;11851;50.796;4.372;2022-07-06T04:03:48;8.90;;;3.25;;
23358;SDS011;11851;50.796;4.372;2022-07-06T04:06:14;6.53;;;3.20;;
23358;SDS011;11851;50.796;4.372;2022-07-06T04:08:40;9.23;;;4.30;;
23358;SDS011;11851;50.796;4.372;2022-07-06T04:11:05;7.75;;;2.80;;
23358;SDS011;11851;50.796;4.372;2022-07-06T04:13:31;8.52;;;3.17;;
23358;SDS011;11851;50.796;4.372;2022-07-06T04:15:57;9.55;;;3.20;;
23358;SDS011;11851;50.796;4.372;2022-07-06T04:18:23;8.68;;;3.72;;
23358;SDS011;11851;50.796;4.372;2022-07-06T04:20:49;8.77;;;3.10;;
23358;SDS011;11851;50.796;4.372;2022-07-06T04:23:14;7.25;;;2.97;;
23358;SDS011;11851;50.796;4.372;2022-07-06T04:25:40;7.45;;;3.63;;
23358;SDS011;11851;50.796;4.372;2022-07-06T04:28:06;7.40;;;3.40;;
23358;SDS011;11851;50.796;4.372;2022-07-06T04:30:32;8.38;;;2.92;;
23358;SDS011;11851;50.796;4.372;2022-07-06T04:32:57;7.70;;;3.33;;
23358;SDS011;11851;50.796;4.372;2022-07-06T04:35:23;8.65;;;3.35;;
23358;SDS011;11851;50.796;4.372;2022-07-06T04:37:49;11.55;;;3.25;;
23358;SDS011;11851;50.796;4.372;2022-07-06T04:40:14;5.32;;;3.10;;
23358;SDS011;11851;50.796;4.372;2022-07-06T04:42:40;8.00;;;3.80;;
23358;SDS011;11851;50.796;4.372;2022-07-06T04:45:06;9.25;;;3.40;;
23358;SDS011;11851;50.796;4.372;2022-07-06T04:47:32;12.05;;;3.50;;
23358;SDS011;11851;50.796;4.372;2022-07-06T04:49:58;11.38;;;3.58;;
23358;SDS011;11851;50.796;4.372;2022-07-06T04:52:24;8.88;;;3.33;;
23358;SDS011;11851;50.796;4.372;2022-07-06T04:54:49;9.77;;;3.63;;
23358;SDS011;11851;50.796;4.372;2022-07-06T04:57:15;9.85;;;3.20;;
23358;SDS011;11851;50.796;4.372;2022-07-06T04:59:41;11.35;;;3.75;;
23358;SDS011;11851;50.796;4.372;2022-07-06T05:02:06;7.30;;;3.30;;
23358;SDS011;11851;50.796;4.372;2022-07-06T05:04:32;8.25;;;3.10;;
23358;SDS011;11851;50.796;4.372;2022-07-06T05:06:58;13.90;;;3.53;;
23358;SDS011;11851;50.796;4.372;2022-07-06T05:09:24;8.30;;;3.50;;
23358;SDS011;11851;50.796;4.372;2022-07-06T05:11:49;12.05;;;3.88;;
23358;SDS011;11851;50.796;4.372;2022-07-06T05:14:15;13.55;;;3.88;;
23358;SDS011;11851;50.796;4.372;2022-07-06T05:16:41;11.13;;;3.33;;
23358;SDS011;11851;50.796;4.372;2022-07-06T05:19:06;10.38;;;4.63;;
23358;SDS011;11851;50.796;4.372;2022-07-06T05:21:32;22.38;;;5.47;;
23358;SDS011;11851;50.796;4.372;2022-07-06T05:23:57;13.93;;;4.20;;
23358;SDS011;11851;50.796;4.372;2022-07-06T05:26:23;8.88;;;4.30;;
23358;SDS011;11851;50.796;4.372;2022-07-06T05:28:49;10.00;;;4.05;;
23358;SDS011;11851;50.796;4.372;2022-07-06T05:31:15;11.15;;;4.30;;
23358;SDS011;11851;50.796;4.372;2022-07-06T05:33:40;12.18;;;3.72;;
23358;SDS011;11851;50.796;4.372;2022-07-06T05:36:06;12.60;;;4.50;;
23358;SDS011;11851;50.796;4.372;2022-07-06T05:38:32;10.38;;;4.63;;
23358;SDS011;11851;50.796;4.372;2022-07-06T05:40:58;10.30;;;4.80;;
23358;SDS011;11851;50.796;4.372;2022-07-06T05:43:23;16.33;;;4.95;;
23358;SDS011;11851;50.796;4.372;2022-07-06T05:45:49;10.40;;;5.03;;
23358;SDS011;11851;50.796;4.372;2022-07-06T05:48:14;16.08;;;5.35;;
23358;SDS011;11851;50.796;4.372;2022-07-06T05:50:59;19.83;;;5.85;;
23358;SDS011;11851;50.796;4.372;2022-07-06T05:53:25;14.25;;;6.28;;
23358;SDS011;11851;50.796;4.372;2022-07-06T05:55:50;14.13;;;6.50;;
23358;SDS011;11851;50.796;4.372;2022-07-06T05:58:16;9.73;;;5.53;;
23358;SDS011;11851;50.796;4.372;2022-07-06T06:00:41;17.00;;;6.07;;
23358;SDS011;11851;50.796;4.372;2022-07-06T06:03:07;21.02;;;5.93;;
23358;SDS011;11851;50.796;4.372;2022-07-06T06:05:33;12.98;;;5.47;;
23358;SDS011;11851;50.796;4.372;2022-07-06T06:07:59;11.40;;;5.22;;
23358;SDS011;11851;50.796;4.372;2022-07-06T06:10:24;11.13;;;5.25;;
23358;SDS011;11851;50.796;4.372;2022-07-06T06:12:50;11.77;;;5.20;;
23358;SDS011;11851;50.796;4.372;2022-07-06T06:15:16;15.20;;;5.45;;
23358;SDS011;11851;50.796;4.372;2022-07-06T06:17:43;12.75;;;4.75;;
23358;SDS011;11851;50.796;4.372;2022-07-06T06:20:10;15.55;;;5.65;;
23358;SDS011;11851;50.796;4.372;2022-07-06T06:22:47;14.90;;;4.85;;
23358;SDS011;11851;50.796;4.372;2022-07-06T06:25:14;13.43;;;6.05;;
23358;SDS011;11851;50.796;4.372;2022-07-06T06:27:42;9.40;;;4.65;;
23358;SDS011;11851;50.796;4.372;2022-07-06T06:30:08;11.27;;;5.43;;
23358;SDS011;11851;50.796;4.372;2022-07-06T06:32:34;10.57;;;5.45;;
23358;SDS011;11851;50.796;4.372;2022-07-06T06:35:00;10.07;;;4.78;;
23358;SDS011;11851;50.796;4.372;2022-07-06T06:37:26;13.13;;;4.70;;
23358;SDS011;11851;50.796;4.372;2022-07-06T06:39:51;15.90;;;3.78;;
23358;SDS011;11851;50.796;4.372;2022-07-06T06:42:17;9.95;;;3.70;;
23358;SDS011;11851;50.796;4.372;2022-07-06T06:44:43;12.85;;;4.60;;
23358;SDS011;11851;50.796;4.372;2022-07-06T06:47:08;11.60;;;4.88;;
23358;SDS011;11851;50.796;4.372;2022-07-06T06:49:34;13.45;;;4.28;;
23358;SDS011;11851;50.796;4.372;2022-07-06T06:51:59;11.93;;;4.65;;
23358;SDS011;11851;50.796;4.372;2022-07-06T06:54:25;12.30;;;4.60;;
23358;SDS011;11851;50.796;4.372;2022-07-06T06:56:51;10.65;;;3.70;;
23358;SDS011;11851;50.796;4.372;2022-07-06T06:59:16;11.63;;;3.35;;
23358;SDS011;11851;50.796;4.372;2022-07-06T07:01:42;7.57;;;3.67;;
23358;SDS011;11851;50.796;4.372;2022-07-06T07:04:08;8.15;;;3.33;;
23358;SDS011;11851;50.796;4.372;2022-07-06T07:06:33;11.63;;;4.20;;
23358;SDS011;11851;50.796;4.372;2022-07-06T07:08:59;17.17;;;4.75;;
23358;SDS011;11851;50.796;4.372;2022-07-06T07:11:25;18.98;;;4.80;;
23358;SDS011;11851;50.796;4.372;2022-07-06T07:13:50;14.88;;;4.43;;
23358;SDS011;11851;50.796;4.372;2022-07-06T07:16:16;9.93;;;4.35;;
23358;SDS011;11851;50.796;4.372;2022-07-06T07:18:41;14.50;;;5.35;;
23358;SDS011;11851;50.796;4.372;2022-07-06T07:21:07;14.57;;;5.68;;
23358;SDS011;11851;50.796;4.372;2022-07-06T07:23:33;16.80;;;5.53;;
23358;SDS011;11851;50.796;4.372;2022-07-06T07:25:58;20.92;;;5.88;;
23358;SDS011;11851;50.796;4.372;2022-07-06T07:28:24;11.88;;;5.50;;
23358;SDS011;11851;50.796;4.372;2022-07-06T07:30:50;13.02;;;4.38;;
23358;SDS011;11851;50.796;4.372;2022-07-06T07:33:15;17.48;;;4.30;;
23358;SDS011;11851;50.796;4.372;2022-07-06T07:35:41;15.32;;;4.35;;
23358;SDS011;11851;50.796;4.372;2022-07-06T07:38:07;18.30;;;5.85;;
23358;SDS011;11851;50.796;4.372;2022-07-06T07:40:33;15.80;;;5.50;;
23358;SDS011;11851;50.796;4.372;2022-07-06T07:43:00;14.25;;;5.05;;
23358;SDS011;11851;50.796;4.372;2022-07-06T07:45:26;17.90;;;4.78;;
23358;SDS011;11851;50.796;4.372;2022-07-06T07:47:51;20.77;;;5.72;;
23358;SDS011;11851;50.796;4.372;2022-07-06T07:50:17;15.73;;;5.10;;
23358;SDS011;11851;50.796;4.372;2022-07-06T07:52:43;26.45;;;4.97;;
23358;SDS011;11851;50.796;4.372;2022-07-06T07:55:09;14.85;;;4.28;;
23358;SDS011;11851;50.796;4.372;2022-07-06T07:57:35;19.13;;;4.03;;
23358;SDS011;11851;50.796;4.372;2022-07-06T08:00:01;15.02;;;3.60;;
23358;SDS011;11851;50.796;4.372;2022-07-06T08:02:27;17.42;;;3.72;;
23358;SDS011;11851;50.796;4.372;2022-07-06T08:04:53;11.55;;;3.67;;
23358;SDS011;11851;50.796;4.372;2022-07-06T08:07:18;10.98;;;3.35;;
23358;SDS011;11851;50.796;4.372;2022-07-06T08:09:44;15.05;;;4.00;;
23358;SDS011;11851;50.796;4.372;2022-07-06T08:12:10;14.57;;;4.55;;
23358;SDS011;11851;50.796;4.372;2022-07-06T08:14:36;10.13;;;3.50;;
23358;SDS011;11851;50.796;4.372;2022-07-06T08:17:02;16.52;;;4.18;;
23358;SDS011;11851;50.796;4.372;2022-07-06T08:19:28;9.30;;;2.95;;
23358;SDS011;11851;50.796;4.372;2022-07-06T08:21:55;14.90;;;3.20;;
23358;SDS011;11851;50.796;4.372;2022-07-06T08:24:21;7.00;;;2.33;;
23358;SDS011;11851;50.796;4.372;2022-07-06T08:26:47;9.65;;;2.70;;
23358;SDS011;11851;50.796;4.372;2022-07-06T08:29:13;9.52;;;2.78;;
23358;SDS011;11851;50.796;4.372;2022-07-06T08:31:39;9.77;;;3.10;;
23358;SDS011;11851;50.796;4.372;2022-07-06T08:34:04;9.98;;;3.03;;
23358;SDS011;11851;50.796;4.372;2022-07-06T08:36:30;12.60;;;3.38;;
23358;SDS011;11851;50.796;4.372;2022-07-06T08:38:56;12.65;;;3.80;;
23358;SDS011;11851;50.796;4.372;2022-07-06T08:41:22;11.82;;;3.40;;
23358;SDS011;11851;50.796;4.372;2022-07-06T08:43:50;11.60;;;3.60;;
23358;SDS011;11851;50.796;4.372;2022-07-06T08:46:17;14.02;;;4.15;;
23358;SDS011;11851;50.796;4.372;2022-07-06T08:48:43;10.90;;;3.40;;
23358;SDS011;11851;50.796;4.372;2022-07-06T08:51:11;10.07;;;3.70;;
23358;SDS011;11851;50.796;4.372;2022-07-06T08:53:39;11.35;;;3.83;;
23358;SDS011;11851;50.796;4.372;2022-07-06T08:56:07;14.73;;;4.28;;
23358;SDS011;11851;50.796;4.372;2022-07-06T08:58:33;14.38;;;4.03;;
23358;SDS011;11851;50.796;4.372;2022-07-06T09:00:59;9.02;;;3.67;;
23358;SDS011;11851;50.796;4.372;2022-07-06T09:03:25;12.48;;;3.17;;
23358;SDS011;11851;50.796;4.372;2022-07-06T09:05:53;8.80;;;3.30;;
23358;SDS011;11851;50.796;4.372;2022-07-06T09:08:24;7.67;;;3.43;;
23358;SDS011;11851;50.796;4.372;2022-07-06T09:10:53;10.30;;;3.33;;
23358;SDS011;11851;50.796;4.372;2022-07-06T09:13:19;9.55;;;3.15;;
23358;SDS011;11851;50.796;4.372;2022-07-06T09:15:45;7.68;;;3.22;;
23358;SDS011;11851;50.796;4.372;2022-07-06T09:18:10;12.88;;;2.88;;
23358;SDS011;11851;50.796;4.372;2022-07-06T09:20:36;9.30;;;2.67;;
23358;SDS011;11851;50.796;4.372;2022-07-06T09:23:03;10.57;;;3.50;;
23358;SDS011;11851;50.796;4.372;2022-07-06T09:25:30;9.40;;;3.35;;
23358;SDS011;11851;50.796;4.372;2022-07-06T09:27:57;7.43;;;3.05;;
23358;SDS011;11851;50.796;4.372;2022-07-06T09:30:24;8.32;;;3.22;;
23358;SDS011;11851;50.796;4.372;2022-07-06T09:32:53;9.45;;;3.05;;
23358;SDS011;11851;50.796;4.372;2022-07-06T09:35:25;10.27;;;3.08;;
23358;SDS011;11851;50.796;4.372;2022-07-06T09:38:02;8.93;;;2.60;;
23358;SDS011;11851;50.796;4.372;2022-07-06T09:40:36;8.57;;;2.75;;
23358;SDS011;11851;50.796;4.372;2022-07-06T09:43:16;8.88;;;2.53;;
23358;SDS011;11851;50.796;4.372;2022-07-06T09:45:53;9.38;;;2.95;;
23358;SDS011;11851;50.796;4.372;2022-07-06T09:48:24;9.70;;;2.85;;
23358;SDS011;11851;50.796;4.372;2022-07-06T09:53:21;10.95;;;3.10;;
23358;SDS011;11851;50.796;4.372;2022-07-06T09:55:53;9.15;;;3.25;;
23358;SDS011;11851;50.796;4.372;2022-07-06T09:58:20;12.75;;;3.55;;
23358;SDS011;11851;50.796;4.372;2022-07-06T10:00:47;8.40;;;2.78;;
23358;SDS011;11851;50.796;4.372;2022-07-06T10:03:14;8.90;;;2.95;;
23358;SDS011;11851;50.796;4.372;2022-07-06T10:05:42;12.57;;;3.17;;
23358;SDS011;11851;50.796;4.372;2022-07-06T10:08:11;7.63;;;2.92;;
23358;SDS011;11851;50.796;4.372;2022-07-06T10:10:37;8.60;;;2.90;;
23358;SDS011;11851;50.796;4.372;2022-07-06T10:13:05;10.10;;;2.85;;
23358;SDS011;11851;50.796;4.372;2022-07-06T10:15:31;11.32;;;3.10;;
23358;SDS011;11851;50.796;4.372;2022-07-06T10:18:01;12.93;;;3.22;;
23358;SDS011;11851;50.796;4.372;2022-07-06T10:20:29;11.10;;;3.35;;
23358;SDS011;11851;50.796;4.372;2022-07-06T10:25:28;9.73;;;3.13;;
23358;SDS011;11851;50.796;4.372;2022-07-06T10:27:54;8.50;;;3.15;;
23358;SDS011;11851;50.796;4.372;2022-07-06T10:30:20;8.63;;;3.45;;
23358;SDS011;11851;50.796;4.372;2022-07-06T10:32:48;8.80;;;3.15;;
23358;SDS011;11851;50.796;4.372;2022-07-06T10:35:15;8.07;;;3.40;;
23358;SDS011;11851;50.796;4.372;2022-07-06T10:37:43;9.18;;;3.33;;
23358;SDS011;11851;50.796;4.372;2022-07-06T10:40:09;13.90;;;3.47;;
23358;SDS011;11851;50.796;4.372;2022-07-06T10:42:58;8.48;;;3.10;;
23358;SDS011;11851;50.796;4.372;2022-07-06T10:50:41;7.88;;;2.47;;
23358;SDS011;11851;50.796;4.372;2022-07-06T10:53:16;6.90;;;2.50;;
23358;SDS011;11851;50.796;4.372;2022-07-06T10:55:53;9.68;;;2.90;;
23358;SDS011;11851;50.796;4.372;2022-07-06T10:58:40;15.55;;;3.17;;
23358;SDS011;11851;50.796;4.372;2022-07-06T11:01:19;11.15;;;2.90;;
23358;SDS011;11851;50.796;4.372;2022-07-06T11:06:24;8.93;;;2.85;;
23358;SDS011;11851;50.796;4.372;2022-07-06T11:09:04;8.90;;;2.70;;
23358;SDS011;11851;50.796;4.372;2022-07-06T11:16:29;12.48;;;2.38;;
23358;SDS011;11851;50.796;4.372;2022-07-06T11:19:17;7.40;;;2.00;;
23358;SDS011;11851;50.796;4.372;2022-07-06T11:21:48;5.78;;;2.00;;
23358;SDS011;11851;50.796;4.372;2022-07-06T11:24:23;4.95;;;1.90;;
23358;SDS011;11851;50.796;4.372;2022-07-06T11:26:51;9.20;;;2.50;;
23358;SDS011;11851;50.796;4.372;2022-07-06T11:29:18;3.15;;;1.55;;
23358;SDS011;11851;50.796;4.372;2022-07-06T11:31:49;6.55;;;2.05;;
23358;SDS011;11851;50.796;4.372;2022-07-06T11:34:27;6.40;;;2.17;;
23358;SDS011;11851;50.796;4.372;2022-07-06T11:37:01;7.13;;;2.20;;
23358;SDS011;11851;50.796;4.372;2022-07-06T11:39:33;14.05;;;2.08;;
23358;SDS011;11851;50.796;4.372;2022-07-06T11:42:00;5.35;;;1.85;;
23358;SDS011;11851;50.796;4.372;2022-07-06T11:44:28;6.53;;;1.83;;
23358;SDS011;11851;50.796;4.372;2022-07-06T11:46:55;5.47;;;1.75;;
23358;SDS011;11851;50.796;4.372;2022-07-06T11:49:26;10.47;;;2.60;;
23358;SDS011;11851;50.796;4.372;2022-07-06T11:51:52;8.68;;;2.50;;
23358;SDS011;11851;50.796;4.372;2022-07-06T11:54:18;6.82;;;2.08;;
23358;SDS011;11851;50.796;4.372;2022-07-06T11:59:27;10.18;;;2.42;;
23358;SDS011;11851;50.796;4.372;2022-07-06T12:01:57;8.50;;;2.40;;
23358;SDS011;11851;50.796;4.372;2022-07-06T12:04:30;14.20;;;3.10;;
23358;SDS011;11851;50.796;4.372;2022-07-06T12:07:06;5.78;;;1.90;;
23358;SDS011;11851;50.796;4.372;2022-07-06T12:09:37;5.95;;;2.42;;
23358;SDS011;11851;50.796;4.372;2022-07-06T12:12:06;8.60;;;2.85;;
23358;SDS011;11851;50.796;4.372;2022-07-06T12:14:34;6.95;;;2.50;;
23358;SDS011;11851;50.796;4.372;2022-07-06T12:17:11;7.85;;;2.45;;
23358;SDS011;11851;50.796;4.372;2022-07-06T12:19:39;6.95;;;2.22;;
23358;SDS011;11851;50.796;4.372;2022-07-06T12:22:06;8.00;;;1.80;;
23358;SDS011;11851;50.796;4.372;2022-07-06T12:24:33;8.52;;;1.90;;
23358;SDS011;11851;50.796;4.372;2022-07-06T12:27:16;12.52;;;2.08;;
23358;SDS011;11851;50.796;4.372;2022-07-06T12:29:43;9.20;;;2.08;;
23358;SDS011;11851;50.796;4.372;2022-07-06T12:32:18;8.40;;;1.92;;
23358;SDS011;11851;50.796;4.372;2022-07-06T12:35:04;7.93;;;2.38;;
23358;SDS011;11851;50.796;4.372;2022-07-06T12:37:34;8.55;;;1.98;;
23358;SDS011;11851;50.796;4.372;2022-07-06T12:40:00;7.93;;;1.95;;
23358;SDS011;11851;50.796;4.372;2022-07-06T12:42:26;9.75;;;2.22;;
23358;SDS011;11851;50.796;4.372;2022-07-06T12:44:53;6.45;;;2.63;;
23358;SDS011;11851;50.796;4.372;2022-07-06T12:47:20;4.15;;;1.98;;
23358;SDS011;11851;50.796;4.372;2022-07-06T12:50:03;5.47;;;2.05;;
23358;SDS011;11851;50.796;4.372;2022-07-06T12:52:30;6.25;;;1.85;;
23358;SDS011;11851;50.796;4.372;2022-07-06T12:54:59;7.53;;;2.47;;
23358;SDS011;11851;50.796;4.372;2022-07-06T12:57:25;7.72;;;2.00;;
23358;SDS011;11851;50.796;4.372;2022-07-06T13:02:22;5.43;;;2.00;;
23358;SDS011;11851;50.796;4.372;2022-07-06T13:05:00;10.88;;;2.00;;
23358;SDS011;11851;50.796;4.372;2022-07-06T13:07:36;4.90;;;2.22;;
23358;SDS011;11851;50.796;4.372;2022-07-06T13:10:04;8.20;;;2.60;;
23358;SDS011;11851;50.796;4.372;2022-07-06T13:12:32;7.75;;;2.05;;
23358;SDS011;11851;50.796;4.372;2022-07-06T13:14:58;5.63;;;2.10;;
23358;SDS011;11851;50.796;4.372;2022-07-06T13:17:23;8.05;;;2.20;;
23358;SDS011;11851;50.796;4.372;2022-07-06T13:19:49;5.88;;;2.00;;
23358;SDS011;11851;50.796;4.372;2022-07-06T13:22:15;11.13;;;2.33;;
23358;SDS011;11851;50.796;4.372;2022-07-06T13:24:42;4.45;;;1.98;;
23358;SDS011;11851;50.796;4.372;2022-07-06T13:27:07;8.82;;;1.98;;
23358;SDS011;11851;50.796;4.372;2022-07-06T13:29:34;8.73;;;2.50;;
23358;SDS011;11851;50.796;4.372;2022-07-06T13:32:00;5.60;;;2.58;;
23358;SDS011;11851;50.796;4.372;2022-07-06T13:34:25;13.38;;;2.00;;
23358;SDS011;11851;50.796;4.372;2022-07-06T13:36:51;6.40;;;2.13;;
23358;SDS011;11851;50.796;4.372;2022-07-06T13:39:17;4.70;;;1.90;;
23358;SDS011;11851;50.796;4.372;2022-07-06T13:41:44;7.00;;;2.10;;
23358;SDS011;11851;50.796;4.372;2022-07-06T13:44:09;4.47;;;2.10;;
23358;SDS011;11851;50.796;4.372;2022-07-06T13:46:36;11.30;;;1.70;;
23358;SDS011;11851;50.796;4.372;2022-07-06T13:49:04;9.40;;;2.00;;
23358;SDS011;11851;50.796;4.372;2022-07-06T13:51:30;6.70;;;2.42;;
23358;SDS011;11851;50.796;4.372;2022-07-06T13:53:57;3.78;;;1.70;;
23358;SDS011;11851;50.796;4.372;2022-07-06T13:56:23;10.43;;;2.42;;
23358;SDS011;11851;50.796;4.372;2022-07-06T13:58:49;7.63;;;1.70;;
23358;SDS011;11851;50.796;4.372;2022-07-06T14:01:15;4.40;;;2.03;;
23358;SDS011;11851;50.796;4.372;2022-07-06T14:03:41;9.60;;;1.98;;
23358;SDS011;11851;50.796;4.372;2022-07-06T14:06:07;6.28;;;2.00;;
23358;SDS011;11851;50.796;4.372;2022-07-06T14:08:34;6.78;;;2.30;;
23358;SDS011;11851;50.796;4.372;2022-07-06T14:11:01;5.68;;;1.90;;
23358;SDS011;11851;50.796;4.372;2022-07-06T14:13:27;6.07;;;2.28;;
23358;SDS011;11851;50.796;4.372;2022-07-06T14:15:53;7.47;;;2.13;;
23358;SDS011;11851;50.796;4.372;2022-07-06T14:18:19;6.80;;;1.92;;
23358;SDS011;11851;50.796;4.372;2022-07-06T14:20:45;10.07;;;2.13;;
23358;SDS011;11851;50.796;4.372;2022-07-06T14:23:12;8.48;;;1.70;;
23358;SDS011;11851;50.796;4.372;2022-07-06T14:25:38;4.13;;;1.55;;
23358;SDS011;11851;50.796;4.372;2022-07-06T14:28:05;7.63;;;1.75;;
23358;SDS011;11851;50.796;4.372;2022-07-06T14:30:31;4.25;;;1.40;;
23358;SDS011;11851;50.796;4.372;2022-07-06T14:33:04;8.27;;;1.55;;
23358;SDS011;11851;50.796;4.372;2022-07-06T14:35:37;10.52;;;1.77;;
23358;SDS011;11851;50.796;4.372;2022-07-06T14:38:05;4.13;;;1.52;;
23358;SDS011;11851;50.796;4.372;2022-07-06T14:40:32;8.52;;;1.67;;
23358;SDS011;11851;50.796;4.372;2022-07-06T14:42:59;3.25;;;1.73;;
23358;SDS011;11851;50.796;4.372;2022-07-06T14:45:25;5.93;;;1.77;;
23358;SDS011;11851;50.796;4.372;2022-07-06T14:47:51;11.25;;;1.90;;
23358;SDS011;11851;50.796;4.372;2022-07-06T14:50:17;4.25;;;1.77;;
23358;SDS011;11851;50.796;4.372;2022-07-06T14:52:43;4.53;;;1.65;;
23358;SDS011;11851;50.796;4.372;2022-07-06T14:55:09;9.18;;;1.88;;
23358;SDS011;11851;50.796;4.372;2022-07-06T14:57:34;6.10;;;2.33;;
23358;SDS011;11851;50.796;4.372;2022-07-06T15:00:00;4.25;;;1.70;;
23358;SDS011;11851;50.796;4.372;2022-07-06T15:02:26;6.55;;;2.25;;
23358;SDS011;11851;50.796;4.372;2022-07-06T15:04:51;6.03;;;1.77;;
23358;SDS011;11851;50.796;4.372;2022-07-06T15:07:17;6.93;;;1.88;;
23358;SDS011;11851;50.796;4.372;2022-07-06T15:09:43;5.10;;;1.92;;
23358;SDS011;11851;50.796;4.372;2022-07-06T15:12:09;5.47;;;1.70;;
23358;SDS011;11851;50.796;4.372;2022-07-06T15:14:34;7.45;;;1.55;;
23358;SDS011;11851;50.796;4.372;2022-07-06T15:17:00;7.00;;;1.88;;